createdAt,value
2019-04-29T00:04:07.456Z,12.40
2019-04-29T00:09:16.462Z,12.40
2019-04-29T00:14:22.779Z,12.30
2019-04-29T00:19:36.237Z,12.30
2019-04-29T00:24:43.118Z,12.40
2019-04-29T00:29:48.985Z,12.40
2019-04-29T00:34:55.163Z,12.70
2019-04-29T00:40:11.885Z,12.70
2019-04-29T00:45:18.439Z,12.60
2019-04-29T00:50:24.455Z,12.50
2019-04-29T00:55:32.154Z,12.40
2019-04-29T01:00:40.893Z,12.40
2019-04-29T01:05:46.880Z,12.40
2019-04-29T01:10:53.135Z,12.40
2019-04-29T01:15:59.021Z,12.30
2019-04-29T01:21:05.077Z,12.30
2019-04-29T01:26:21.494Z,12.30
2019-04-29T01:31:29.106Z,12.20
2019-04-29T01:36:39.276Z,12.10
2019-04-29T01:41:45.042Z,12.00
2019-04-29T01:46:51.175Z,11.90
2019-04-29T01:51:57.184Z,11.80
2019-04-29T01:57:03.163Z,11.70
2019-04-29T02:02:09.130Z,11.70
2019-04-29T02:07:15.506Z,11.50
2019-04-29T02:12:21.375Z,11.50
2019-04-29T02:17:27.239Z,11.40
2019-04-29T02:22:43.655Z,11.20
2019-04-29T02:27:49.640Z,11.10
2019-04-29T02:32:55.703Z,11.10
2019-04-29T02:38:02.292Z,11.10
2019-04-29T02:43:18.921Z,11.20
2019-04-29T02:48:29.196Z,11.20
2019-04-29T02:53:31.953Z,11.10
2019-04-29T02:58:45.321Z,11.20
2019-04-29T03:03:58.772Z,11.30
2019-04-29T03:09:06.792Z,11.20
2019-04-29T03:14:13.269Z,11.20
2019-04-29T03:19:23.746Z,11.20
2019-04-29T03:24:30.043Z,11.20
2019-04-29T03:29:36.509Z,11.20
2019-04-29T03:34:42.490Z,11.20
2019-04-29T03:39:48.499Z,11.10
2019-04-29T03:44:54.422Z,11.10
2019-04-29T03:50:00.389Z,10.90
2019-04-29T03:55:07.391Z,10.80
2019-04-29T04:00:17.657Z,10.70
2019-04-29T04:05:43.395Z,10.90
2019-04-29T04:10:49.567Z,10.90
2019-04-29T04:15:55.636Z,10.80
2019-04-29T04:21:01.619Z,10.80
2019-04-29T04:26:07.686Z,10.80
2019-04-29T04:31:13.591Z,10.90
2019-04-29T04:36:19.423Z,10.90
2019-04-29T04:41:25.503Z,10.90
2019-04-29T04:46:31.579Z,11.00
2019-04-29T04:51:37.551Z,11.00
2019-04-29T04:56:44.024Z,11.10
2019-04-29T05:01:49.989Z,11.50
2019-04-29T05:06:55.834Z,12.50
2019-04-29T05:12:02.032Z,13.00
2019-04-29T05:17:09.031Z,13.60
2019-04-29T05:22:14.948Z,13.80
2019-04-29T05:27:21.347Z,14.10
2019-04-29T05:32:27.196Z,14.60
2019-04-29T05:37:37.730Z,15.30
2019-04-29T05:42:43.806Z,15.50
2019-04-29T05:47:57.134Z,15.50
2019-04-29T05:53:16.370Z,15.60
2019-04-29T05:58:20.663Z,15.80
2019-04-29T06:03:26.631Z,15.90
2019-04-29T06:08:34.410Z,16.10
2019-04-29T06:13:40.216Z,16.20
2019-04-29T06:18:46.182Z,16.20
2019-04-29T06:23:54.566Z,16.30
2019-04-29T06:29:01.806Z,16.30
2019-04-29T06:34:07.892Z,16.20
2019-04-29T06:39:14.174Z,16.30
2019-04-29T06:44:20.234Z,16.50
2019-04-29T06:49:26.311Z,16.50
2019-04-29T06:54:32.295Z,16.20
2019-04-29T06:59:38.219Z,16.10
2019-04-29T07:04:44.224Z,15.90
2019-04-29T07:09:50.428Z,15.90
2019-04-29T07:14:56.369Z,16.00
2019-04-29T07:20:03.369Z,15.90
2019-04-29T07:25:09.479Z,15.90
2019-04-29T07:30:15.610Z,16.00
2019-04-29T07:35:21.580Z,16.10
2019-04-29T07:40:27.862Z,16.20
2019-04-29T07:45:51.772Z,16.20
2019-04-29T07:50:59.382Z,16.30
2019-04-29T07:56:06.320Z,16.40
2019-04-29T08:01:13.254Z,16.30
2019-04-29T08:06:19.754Z,16.40
2019-04-29T08:11:25.701Z,16.60
2019-04-29T08:16:31.778Z,16.70
2019-04-29T08:21:37.847Z,16.80
2019-04-29T08:26:47.262Z,16.90
2019-04-29T08:31:56.334Z,17.00
2019-04-29T08:36:59.239Z,17.00
2019-04-29T08:42:09.130Z,17.20
2019-04-29T08:47:18.556Z,17.30
2019-04-29T08:52:24.530Z,17.40
2019-04-29T08:57:31.819Z,17.50
2019-04-29T09:02:41.254Z,17.50
2019-04-29T09:07:46.026Z,17.80
2019-04-29T09:12:51.894Z,17.90
2019-04-29T09:17:57.865Z,17.90
2019-04-29T09:23:08.281Z,18.00
2019-04-29T09:28:18.270Z,18.10
2019-04-29T09:33:23.935Z,18.00
2019-04-29T09:38:32.570Z,18.30
2019-04-29T09:43:59.253Z,18.30
2019-04-29T09:49:05.131Z,18.30
2019-04-29T09:54:14.594Z,18.50
2019-04-29T09:59:26.497Z,18.60
2019-04-29T10:04:34.206Z,18.70
2019-04-29T10:09:40.525Z,18.80
2019-04-29T10:14:46.655Z,18.90
2019-04-29T10:19:54.369Z,18.90
2019-04-29T10:25:00.443Z,19.00
2019-04-29T10:30:10.028Z,18.90
2019-04-29T10:35:16.170Z,19.00
2019-04-29T10:40:29.729Z,19.10
2019-04-29T10:45:40.816Z,19.30
2019-04-29T10:50:52.158Z,19.30
2019-04-29T10:56:01.081Z,19.50
2019-04-29T11:01:40.781Z,19.70
2019-04-29T11:06:46.778Z,19.50
2019-04-29T11:11:53.979Z,19.60
2019-04-29T11:17:01.075Z,19.80
2019-04-29T11:22:07.616Z,19.70
2019-04-29T11:27:15.087Z,19.80
2019-04-29T11:32:32.199Z,19.80
2019-04-29T11:37:38.583Z,20.00
2019-04-29T11:42:44.552Z,19.80
2019-04-29T11:47:50.393Z,19.90
2019-04-29T11:52:56.496Z,20.20
2019-04-29T11:58:03.998Z,20.20
2019-04-29T12:03:19.869Z,20.40
2019-04-29T12:08:26.080Z,20.50
2019-04-29T12:13:42.706Z,20.30
2019-04-29T12:18:50.260Z,20.40
2019-04-29T12:24:11.743Z,20.60
2019-04-29T12:29:19.401Z,20.40
2019-04-29T12:34:44.344Z,20.40
2019-04-29T12:39:49.996Z,20.60
2019-04-29T12:45:03.146Z,20.60
2019-04-29T12:50:09.351Z,20.50
2019-04-29T12:55:20.071Z,20.60
2019-04-29T13:00:26.410Z,20.70
2019-04-29T13:05:57.174Z,20.80
2019-04-29T13:10:56.784Z,20.80
2019-04-29T13:16:05.006Z,20.90
2019-04-29T13:21:11.388Z,21.00
2019-04-29T13:31:55.942Z,20.70
2019-04-29T13:37:07.473Z,20.40
2019-04-29T13:42:15.339Z,20.50
2019-04-29T13:47:36.040Z,20.60
2019-04-29T13:52:42.065Z,20.50
2019-04-29T13:57:49.577Z,20.40
2019-04-29T14:03:00.341Z,20.40
2019-04-29T14:08:06.326Z,20.40
2019-04-29T14:13:17.526Z,20.30
2019-04-29T14:18:20.208Z,20.30
2019-04-29T14:23:26.281Z,20.50
2019-04-29T14:28:32.355Z,20.30
2019-04-29T14:33:39.862Z,20.20
2019-04-29T14:38:45.939Z,20.20
2019-04-29T14:43:57.036Z,20.00
2019-04-29T14:49:06.233Z,19.70
2019-04-29T14:54:12.316Z,19.60
2019-04-29T14:59:19.708Z,19.60
2019-04-29T15:04:27.768Z,19.50
2019-04-29T15:09:46.037Z,19.30
2019-04-29T15:15:00.864Z,19.30
2019-04-29T15:20:10.403Z,19.00
2019-04-29T15:25:20.860Z,19.00
2019-04-29T15:30:23.609Z,18.90
2019-04-29T15:35:29.623Z,18.90
2019-04-29T15:40:42.830Z,18.90
2019-04-29T15:45:43.290Z,18.60
2019-04-29T15:50:49.256Z,18.40
2019-04-29T15:56:06.583Z,18.30
2019-04-29T16:01:12.960Z,18.30
2019-04-29T16:06:21.261Z,18.20
2019-04-29T16:11:35.491Z,18.10
2019-04-29T16:16:42.677Z,17.90
2019-04-29T16:21:48.741Z,17.80
2019-04-29T16:26:54.712Z,17.70
2019-04-29T16:32:03.167Z,17.40
2019-04-29T16:37:08.059Z,17.30
2019-04-29T16:42:15.587Z,17.10
2019-04-29T16:47:22.588Z,16.80
2019-04-29T16:52:28.514Z,16.50
2019-04-29T16:57:35.856Z,16.30
2019-04-29T17:02:41.836Z,16.20
2019-04-29T17:07:48.544Z,16.00
2019-04-29T17:12:54.586Z,15.80
2019-04-29T17:18:00.664Z,15.70
2019-04-29T17:23:06.738Z,15.70
2019-04-29T17:28:24.154Z,15.30
2019-04-29T17:33:30.370Z,15.20
2019-04-29T17:38:37.139Z,15.00
2019-04-29T17:43:56.993Z,14.70
2019-04-29T17:49:17.071Z,14.50
2019-04-29T17:54:25.513Z,14.30
2019-04-29T17:59:33.380Z,14.10
2019-04-29T18:04:56.012Z,14.00
2019-04-29T18:10:05.088Z,13.80
2019-04-29T18:15:17.438Z,13.70
2019-04-29T18:20:33.460Z,13.50
2019-04-29T18:25:40.575Z,13.30
2019-04-29T18:30:49.777Z,13.20
2019-04-29T18:36:03.730Z,12.90
2019-04-29T18:41:02.335Z,12.80
2019-04-29T18:46:12.666Z,12.60
2019-04-29T18:51:15.993Z,12.50
2019-04-29T18:56:21.975Z,12.30
2019-04-29T19:01:28.804Z,12.20
2019-04-29T19:06:36.295Z,12.10
2019-04-29T19:11:42.256Z,11.90
2019-04-29T19:16:48.308Z,11.60
2019-04-29T19:21:55.877Z,11.50
2019-04-29T19:27:02.342Z,11.40
2019-04-29T19:32:08.662Z,11.20
2019-04-29T19:37:15.388Z,11.00
2019-04-29T19:42:29.036Z,10.90
2019-04-29T19:47:29.466Z,10.80
2019-04-29T19:52:35.365Z,10.60
2019-04-29T19:57:46.650Z,10.40
2019-04-29T20:02:50.423Z,10.40
2019-04-29T20:07:59.022Z,10.40
2019-04-29T20:13:04.933Z,10.20
2019-04-29T20:18:23.769Z,10.20
2019-04-29T20:23:26.109Z,10.00
2019-04-29T20:28:30.984Z,9.80
2019-04-29T20:33:37.369Z,9.60
2019-04-29T20:38:45.309Z,9.40
2019-04-29T20:43:51.501Z,9.30
2019-04-29T20:48:59.606Z,9.30
2019-04-29T20:54:19.901Z,9.30
2019-04-29T20:59:26.275Z,9.20
2019-04-29T21:04:39.137Z,9.10
2019-04-29T21:09:39.956Z,9.00
2019-04-29T21:14:47.950Z,9.00
2019-04-29T21:19:53.895Z,8.90
2019-04-29T21:24:59.893Z,8.70
2019-04-29T21:30:07.579Z,8.60
2019-04-29T21:35:18.570Z,8.60
2019-04-29T21:40:27.506Z,8.60
2019-04-29T21:45:33.480Z,8.60
2019-04-29T21:50:39.348Z,8.60
2019-04-29T21:55:45.758Z,8.70
2019-04-29T22:00:55.934Z,8.70
2019-04-29T22:06:02.073Z,8.60
2019-04-29T22:11:08.040Z,8.60
2019-04-29T22:16:15.906Z,8.40
2019-04-29T22:21:23.439Z,8.30
2019-04-29T22:26:29.539Z,8.10
2019-04-29T22:31:38.177Z,7.90
2019-04-29T22:36:43.016Z,7.90
2019-04-29T22:42:06.703Z,7.70
2019-04-29T22:47:16.549Z,7.60
2019-04-29T22:52:20.282Z,7.40
2019-04-29T22:57:28.108Z,7.30
2019-04-29T23:02:33.966Z,7.30
2019-04-29T23:07:39.836Z,7.30
2019-04-29T23:12:49.307Z,7.20
2019-04-29T23:17:53.414Z,7.20
2019-04-29T23:23:07.661Z,7.10
2019-04-29T23:28:14.162Z,7.00
2019-04-29T23:33:22.840Z,7.10
2019-04-29T23:38:27.641Z,7.00
2019-04-29T23:43:35.429Z,7.00
2019-04-29T23:48:41.531Z,7.00
2019-04-29T23:53:47.353Z,6.90
2019-04-29T23:58:55.409Z,6.90
